Terminal Aerodrome Forecast
Issued by NWS

Home | Current Version | Previous Version | Text Only | Print | Product List | Glossary On
Versions: 1 2 3 4 5 6 7 8 9 10 11 12 13 14 15 16 17
000
FTUS43 KFGF 221700
TAFBJI
TAF
KBJI 221727Z 2218/2318 11006KT 1SM -RA BR OVC004
     FM230000 10008KT 2SM -RASN BR OVC003
     FM230300 07007KT 1 1/2SM -SN BR OVC003
     FM231100 04006KT 1 1/2SM -SN BR OVC003=

USA.gov is the U.S. government's official web portal to all federal, state and local government web resources and services.